Time;durP1;ratioP1;P1;durP2;ratioP2;P2;SDS_P1;SDS_P2;PMS_P1;PMS_P2;Temp;Humidity;BMP_temperature;BMP_pressure;BME280_temperature;BME280_humidity;BME280_pressure;Samples;Min_cycle;Max_cycle;Signal;HPM_P1;HPM_P2
2023/10/20 00:00:08;;;;;;;8.23;4.30;;;16.70;65.50;;;;;;349482;28;1941;-55
2023/10/20 00:00:18;;;;;;;8.30;4.50;;;16.70;65.70;;;;;;349577;28;1640;-56
2023/10/20 00:00:29;;;;;;;6.87;4.07;;;16.70;65.80;;;;;;349590;28;1230;-55
2023/10/20 00:00:41;;;;;;;6.47;3.65;;;16.70;65.80;;;;;;349546;28;1573;-55
2023/10/20 00:00:51;;;;;;;5.43;3.00;;;16.70;66.10;;;;;;349589;28;1038;-57
2023/10/20 00:01:02;;;;;;;5.63;2.67;;;16.70;66.30;;;;;;349682;28;770;-56
2023/10/20 00:01:13;;;;;;;5.40;2.30;;;16.70;66.60;;;;;;349711;28;1080;-56
2023/10/20 00:01:23;;;;;;;6.13;2.88;;;16.70;66.80;;;;;;349633;28;1439;-56
2023/10/20 00:01:34;;;;;;;8.27;4.70;;;16.70;66.90;;;;;;349576;28;987;-56
2023/10/20 00:01:45;;;;;;;11.43;7.03;;;16.70;66.90;;;;;;349726;28;809;-56
2023/10/20 00:01:56;;;;;;;12.02;7.60;;;16.70;67.10;;;;;;349683;28;924;-56
2023/10/20 00:02:06;;;;;;;10.35;7.10;;;16.70;67.10;;;;;;349690;28;900;-56
2023/10/20 00:02:17;;;;;;;8.13;5.15;;;16.70;67.00;;;;;;349559;28;1344;-55
2023/10/20 00:02:28;;;;;;;7.13;3.70;;;16.70;67.00;;;;;;349619;28;1098;-56
2023/10/20 00:02:38;;;;;;;6.05;2.35;;;16.70;66.90;;;;;;349668;28;1014;-55
2023/10/20 00:02:49;;;;;;;4.90;1.95;;;16.70;66.50;;;;;;349611;28;1119;-57
2023/10/20 00:03:00;;;;;;;4.88;1.92;;;16.70;65.90;;;;;;349628;28;962;-56
2023/10/20 00:03:11;;;;;;;5.77;1.90;;;16.70;65.80;;;;;;349613;28;1070;-56
2023/10/20 00:03:22;;;;;;;5.63;2.00;;;16.70;65.60;;;;;;349637;28;1054;-56
2023/10/20 00:03:33;;;;;;;5.13;2.08;;;16.70;65.60;;;;;;349632;28;1260;-57
2023/10/20 00:03:44;;;;;;;4.30;2.05;;;16.70;65.60;;;;;;349570;28;1138;-55
2023/10/20 00:03:55;;;;;;;4.97;1.98;;;16.70;65.70;;;;;;349690;28;902;-56
2023/10/20 00:04:05;;;;;;;4.57;1.97;;;16.70;65.80;;;;;;349664;28;1850;-55
2023/10/20 00:04:16;;;;;;;4.88;2.00;;;16.70;65.60;;;;;;349557;28;1445;-56
2023/10/20 00:04:28;;;;;;;4.22;1.90;;;16.70;65.60;;;;;;349599;28;955;-56
2023/10/20 00:04:38;;;;;;;4.30;1.63;;;16.70;65.60;;;;;;349623;28;992;-55
2023/10/20 00:04:49;;;;;;;4.80;1.70;;;16.70;65.60;;;;;;349651;28;1094;-55
2023/10/20 00:05:03;;;;;;;5.35;1.60;;;16.70;65.70;;;;;;349628;28;864;-56
2023/10/20 00:05:14;;;;;;;4.93;1.60;;;16.70;65.80;;;;;;349547;28;1106;-57
2023/10/20 00:05:25;;;;;;;4.22;1.65;;;16.70;65.90;;;;;;349656;28;1809;-56
2023/10/20 00:05:37;;;;;;;4.65;1.80;;;16.70;66.00;;;;;;349593;28;881;-56
2023/10/20 00:05:47;;;;;;;4.45;1.80;;;16.70;66.20;;;;;;349631;28;1947;-56
2023/10/20 00:05:58;;;;;;;5.07;2.17;;;16.70;66.10;;;;;;349609;28;1213;-56
2023/10/20 00:06:09;;;;;;;5.22;2.55;;;16.70;65.90;;;;;;349605;28;1046;-56
2023/10/20 00:06:20;;;;;;;6.30;2.92;;;16.70;66.10;;;;;;349578;28;1134;-55
2023/10/20 00:06:31;;;;;;;7.78;3.53;;;16.70;66.10;;;;;;349605;28;984;-56
2023/10/20 00:06:42;;;;;;;10.90;5.33;;;16.70;66.10;;;;;;349571;28;891;-56
2023/10/20 00:06:52;;;;;;;13.15;7.10;;;16.70;66.30;;;;;;349682;28;856;-55
2023/10/20 00:07:03;;;;;;;20.80;12.73;;;16.70;66.40;;;;;;349696;28;852;-56
2023/10/20 00:07:14;;;;;;;25.63;16.47;;;16.70;66.50;;;;;;349584;28;1019;-57
2023/10/20 00:07:26;;;;;;;25.92;16.92;;;16.70;66.60;;;;;;349666;28;912;-54
2023/10/20 00:07:37;;;;;;;14.07;8.55;;;16.70;66.70;;;;;;349670;28;963;-56
2023/10/20 00:07:48;;;;;;;7.60;3.80;;;16.70;66.50;;;;;;349542;28;1542;-55
2023/10/20 00:07:58;;;;;;;9.47;4.53;;;16.70;66.60;;;;;;349671;28;1082;-56
2023/10/20 00:08:09;;;;;;;9.65;5.13;;;16.70;66.60;;;;;;349672;28;911;-55
2023/10/20 00:08:20;;;;;;;9.45;5.00;;;16.70;66.40;;;;;;349559;28;1022;-55
2023/10/20 00:08:31;;;;;;;6.77;3.53;;;16.70;66.20;;;;;;349646;28;1002;-56
2023/10/20 00:08:42;;;;;;;11.73;6.53;;;16.70;66.10;;;;;;349645;28;1035;-56
2023/10/20 00:08:53;;;;;;;18.15;11.20;;;16.70;66.00;;;;;;349584;28;898;-55
2023/10/20 00:09:06;;;;;;;21.38;13.75;;;16.70;66.10;;;;;;349655;28;2083;-55
2023/10/20 00:09:18;;;;;;;20.90;13.93;;;16.70;66.00;;;;;;349612;28;991;-56
2023/10/20 00:09:29;;;;;;;20.10;13.70;;;16.70;65.90;;;;;;349576;28;1963;-56
2023/10/20 00:09:39;;;;;;;16.85;11.82;;;16.70;66.10;;;;;;349678;28;939;-56
2023/10/20 00:09:50;;;;;;;13.00;8.75;;;16.70;66.10;;;;;;349640;28;999;-56
2023/10/20 00:10:02;;;;;;;14.43;9.85;;;16.70;66.60;;;;;;349572;28;964;-56
2023/10/20 00:10:13;;;;;;;15.95;10.20;;;16.70;67.00;;;;;;349666;28;1250;-55
2023/10/20 00:10:24;;;;;;;14.60;8.60;;;16.70;66.80;;;;;;349706;28;1018;-56
2023/10/20 00:10:35;;;;;;;10.70;5.85;;;16.70;66.50;;;;;;349594;28;1310;-55
2023/10/20 00:10:46;;;;;;;12.02;7.40;;;16.70;66.50;;;;;;349607;28;920;-56
2023/10/20 00:11:04;;;;;;;13.95;8.73;;;16.70;66.80;;;;;;349698;28;1062;-55
2023/10/20 00:11:14;;;;;;;14.55;9.32;;;16.70;66.40;;;;;;349642;28;903;-56
2023/10/20 00:11:25;;;;;;;13.17;9.30;;;16.70;66.10;;;;;;349607;28;1150;-56
2023/10/20 00:11:38;;;;;;;10.55;7.78;;;16.70;66.10;;;;;;349590;28;929;-56
2023/10/20 00:11:51;;;;;;;7.32;4.80;;;16.70;66.40;;;;;;349638;28;1023;-55
2023/10/20 00:12:01;;;;;;;7.60;3.95;;;16.70;66.30;;;;;;349615;28;1126;-57
2023/10/20 00:12:12;;;;;;;8.75;4.55;;;16.70;66.30;;;;;;349576;28;1095;-56
2023/10/20 00:12:23;;;;;;;8.07;4.30;;;16.70;66.20;;;;;;349604;28;1023;-56
2023/10/20 00:12:35;;;;;;;6.82;3.05;;;16.70;66.50;;;;;;349619;28;1082;-56
2023/10/20 00:12:45;;;;;;;5.55;2.38;;;16.70;66.40;;;;;;349650;28;920;-56
2023/10/20 00:12:59;;;;;;;5.45;2.13;;;16.70;65.80;;;;;;349665;28;976;-56
2023/10/20 00:13:09;;;;;;;6.97;3.00;;;16.70;65.60;;;;;;349548;28;1017;-56
2023/10/20 00:13:21;;;;;;;7.88;3.17;;;16.70;65.60;;;;;;349653;28;1003;-56
2023/10/20 00:13:33;;;;;;;8.88;3.97;;;16.70;65.50;;;;;;349679;28;829;-55
2023/10/20 00:13:43;;;;;;;8.15;4.13;;;16.70;65.40;;;;;;349627;28;1205;-56
2023/10/20 00:13:54;;;;;;;8.25;4.78;;;16.70;65.20;;;;;;349566;28;1064;-56
2023/10/20 00:14:05;;;;;;;9.13;5.13;;;16.70;65.30;;;;;;349633;28;1071;-56
2023/10/20 00:14:16;;;;;;;8.88;5.05;;;16.70;65.40;;;;;;349606;28;975;-55
2023/10/20 00:14:26;;;;;;;8.10;4.17;;;16.70;65.60;;;;;;349680;28;785;-56
2023/10/20 00:14:37;;;;;;;6.65;3.35;;;16.70;66.00;;;;;;349646;28;1000;-56
2023/10/20 00:14:48;;;;;;;6.07;2.92;;;16.70;66.00;;;;;;349601;28;1182;-56
2023/10/20 00:14:58;;;;;;;5.32;3.00;;;16.70;66.00;;;;;;349671;28;1765;-56
2023/10/20 00:15:13;;;;;;;5.77;3.23;;;16.70;66.30;;;;;;349642;28;1451;-55
2023/10/20 00:15:25;;;;;;;5.47;2.95;;;16.70;66.50;;;;;;349600;28;1398;-56
2023/10/20 00:15:36;;;;;;;6.32;3.50;;;16.70;66.50;;;;;;349532;28;987;-55
2023/10/20 00:15:46;;;;;;;6.85;3.80;;;16.70;66.50;;;;;;349667;28;1035;-56
2023/10/20 00:15:57;;;;;;;6.97;3.88;;;16.70;66.70;;;;;;349613;28;934;-56
2023/10/20 00:16:09;;;;;;;6.18;3.25;;;16.70;66.70;;;;;;349615;28;971;-55
2023/10/20 00:16:29;;;;;;;5.20;2.38;;;16.70;66.70;;;;;;349544;28;1032;-57
2023/10/20 00:16:40;;;;;;;6.30;2.15;;;16.70;66.50;;;;;;349540;28;1517;-56
2023/10/20 00:16:51;;;;;;;7.47;2.78;;;16.70;66.30;;;;;;349571;28;979;-55
2023/10/20 00:17:02;;;;;;;7.10;3.42;;;16.70;66.20;;;;;;349608;28;1140;-56
2023/10/20 00:17:12;;;;;;;7.88;4.40;;;16.70;65.90;;;;;;349533;28;1074;-56
2023/10/20 00:17:23;;;;;;;7.72;4.30;;;16.70;65.70;;;;;;349593;28;1420;-56
2023/10/20 00:17:34;;;;;;;7.73;3.83;;;16.70;65.50;;;;;;349625;28;1116;-55
2023/10/20 00:17:44;;;;;;;6.80;2.75;;;16.70;65.50;;;;;;349580;28;1065;-57
2023/10/20 00:17:55;;;;;;;5.07;2.47;;;16.70;65.50;;;;;;349694;28;936;-56
2023/10/20 00:18:06;;;;;;;3.97;2.13;;;16.70;65.70;;;;;;349682;28;836;-55
2023/10/20 00:18:18;;;;;;;5.20;2.50;;;16.70;65.20;;;;;;349580;28;907;-56
2023/10/20 00:18:28;;;;;;;5.47;2.63;;;16.70;65.40;;;;;;349637;28;987;-55
2023/10/20 00:18:39;;;;;;;5.65;2.70;;;16.60;65.40;;;;;;349526;28;1058;-56
2023/10/20 00:18:50;;;;;;;4.57;2.67;;;16.60;66.10;;;;;;349605;28;1862;-55
2023/10/20 00:19:03;;;;;;;6.75;4.70;;;16.70;66.40;;;;;;349665;28;879;-56
2023/10/20 00:19:14;;;;;;;9.45;6.20;;;16.70;66.20;;;;;;349525;28;1031;-56
2023/10/20 00:19:25;;;;;;;9.57;5.45;;;16.70;66.10;;;;;;349658;28;1858;-55
2023/10/20 00:19:36;;;;;;;8.65;4.63;;;16.70;66.20;;;;;;349584;28;972;-56
2023/10/20 00:19:46;;;;;;;7.65;3.85;;;16.70;65.80;;;;;;349642;28;1055;-55
2023/10/20 00:19:57;;;;;;;6.57;2.90;;;16.70;65.50;;;;;;349595;28;1718;-56
2023/10/20 00:20:11;;;;;;;5.38;1.85;;;16.70;65.30;;;;;;349500;28;1893;-55
2023/10/20 00:20:22;;;;;;;5.20;1.95;;;16.70;65.10;;;;;;349672;28;983;-56
2023/10/20 00:20:33;;;;;;;6.13;2.80;;;16.70;65.30;;;;;;349562;28;971;-56
2023/10/20 00:20:44;;;;;;;6.88;3.45;;;16.70;65.50;;;;;;349506;28;999;-56
2023/10/20 00:20:55;;;;;;;6.10;3.22;;;16.70;65.50;;;;;;349486;28;1150;-56
2023/10/20 00:21:05;;;;;;;5.93;3.30;;;16.70;65.60;;;;;;349596;28;1616;-56
2023/10/20 00:21:16;;;;;;;6.57;3.13;;;16.70;65.70;;;;;;349614;28;1162;-56
2023/10/20 00:21:29;;;;;;;6.57;2.77;;;16.70;65.80;;;;;;349643;28;1348;-57
2023/10/20 00:21:39;;;;;;;4.90;2.17;;;16.70;65.80;;;;;;349508;28;1251;-55
2023/10/20 00:21:52;;;;;;;7.13;3.83;;;16.70;65.90;;;;;;349674;28;868;-55
2023/10/20 00:22:03;;;;;;;10.18;6.03;;;16.70;66.00;;;;;;349520;28;2712;-56
2023/10/20 00:22:15;;;;;;;11.35;6.53;;;16.70;66.20;;;;;;349694;28;872;-55
2023/10/20 00:22:26;;;;;;;9.88;5.95;;;16.70;66.20;;;;;;349620;28;1043;-56
2023/10/20 00:22:36;;;;;;;10.73;6.43;;;16.70;66.20;;;;;;349519;28;1446;-56
2023/10/20 00:22:47;;;;;;;11.10;7.40;;;16.60;66.40;;;;;;349680;28;861;-56
2023/10/20 00:22:58;;;;;;;9.88;5.95;;;16.70;66.50;;;;;;349603;28;1107;-55
2023/10/20 00:23:09;;;;;;;7.77;4.00;;;16.70;66.30;;;;;;349611;28;1062;-56
2023/10/20 00:23:19;;;;;;;6.73;3.17;;;16.70;66.20;;;;;;349617;28;1007;-56
2023/10/20 00:23:31;;;;;;;5.70;2.72;;;16.70;66.10;;;;;;349580;28;1165;-55
2023/10/20 00:23:41;;;;;;;5.85;2.45;;;16.70;65.80;;;;;;349512;28;1123;-56
2023/10/20 00:23:52;;;;;;;5.63;2.37;;;16.70;65.60;;;;;;349620;28;1094;-56
2023/10/20 00:24:03;;;;;;;5.72;2.28;;;16.70;65.80;;;;;;349663;28;908;-55
2023/10/20 00:24:14;;;;;;;5.82;1.80;;;16.70;66.30;;;;;;349543;28;1027;-56
2023/10/20 00:24:25;;;;;;;5.45;1.58;;;16.70;66.30;;;;;;349689;28;821;-55
2023/10/20 00:24:36;;;;;;;4.80;1.40;;;16.70;66.20;;;;;;349501;28;1388;-55
2023/10/20 00:24:46;;;;;;;4.43;1.30;;;16.70;66.00;;;;;;349572;28;1078;-56
2023/10/20 00:24:58;;;;;;;4.63;1.43;;;16.70;66.20;;;;;;349662;28;793;-55
2023/10/20 00:25:11;;;;;;;4.38;1.38;;;16.70;66.30;;;;;;349635;28;1130;-55
2023/10/20 00:25:22;;;;;;;4.40;1.35;;;16.70;66.20;;;;;;349541;28;1008;-55
2023/10/20 00:25:33;;;;;;;4.32;1.20;;;16.70;65.90;;;;;;349626;28;1213;-56
2023/10/20 00:25:44;;;;;;;4.35;1.20;;;16.70;65.70;;;;;;349729;28;868;-56
2023/10/20 00:25:54;;;;;;;3.88;1.30;;;16.70;65.60;;;;;;349639;28;1086;-56
2023/10/20 00:26:05;;;;;;;4.25;1.50;;;16.70;65.60;;;;;;349574;28;972;-56
2023/10/20 00:26:16;;;;;;;4.50;1.43;;;16.70;65.60;;;;;;349582;28;1075;-56
2023/10/20 00:26:26;;;;;;;5.25;1.55;;;16.70;65.60;;;;;;349663;28;1007;-56
2023/10/20 00:26:37;;;;;;;4.75;1.52;;;16.70;65.60;;;;;;349703;28;813;-56
2023/10/20 00:26:49;;;;;;;5.05;1.60;;;16.70;65.70;;;;;;349613;28;1150;-55
2023/10/20 00:27:00;;;;;;;4.93;1.50;;;16.70;65.80;;;;;;349663;28;837;-55
2023/10/20 00:27:13;;;;;;;5.07;1.35;;;16.70;65.80;;;;;;349624;28;1162;-56
2023/10/20 00:27:23;;;;;;;5.10;1.30;;;16.70;65.80;;;;;;349570;28;968;-56
2023/10/20 00:27:34;;;;;;;4.97;1.40;;;16.70;66.00;;;;;;349602;28;1268;-56
2023/10/20 00:27:45;;;;;;;4.90;1.50;;;16.70;66.00;;;;;;349640;28;983;-56
2023/10/20 00:27:56;;;;;;;5.22;1.60;;;16.70;65.90;;;;;;349625;28;960;-56
2023/10/20 00:28:06;;;;;;;5.40;1.50;;;16.70;66.00;;;;;;349554;28;1086;-56
2023/10/20 00:28:17;;;;;;;5.20;1.45;;;16.70;65.80;;;;;;349685;28;845;-56
2023/10/20 00:28:28;;;;;;;3.95;1.30;;;16.70;65.70;;;;;;349644;28;1122;-56
2023/10/20 00:28:39;;;;;;;3.35;1.30;;;16.70;65.60;;;;;;349658;28;1042;-56
2023/10/20 00:28:50;;;;;;;4.00;1.30;;;16.70;65.70;;;;;;349589;28;1784;-56
2023/10/20 00:29:01;;;;;;;4.40;1.30;;;16.70;65.90;;;;;;349638;28;825;-56
2023/10/20 00:29:12;;;;;;;5.47;1.40;;;16.70;66.10;;;;;;349621;28;1011;-56
2023/10/20 00:29:22;;;;;;;5.45;1.45;;;16.70;66.30;;;;;;349611;28;1031;-56
2023/10/20 00:29:33;;;;;;;4.77;1.50;;;16.70;66.50;;;;;;349556;28;1051;-57
2023/10/20 00:29:45;;;;;;;4.50;1.60;;;16.70;66.10;;;;;;349676;28;1007;-56
2023/10/20 00:29:55;;;;;;;4.45;1.45;;;16.60;65.90;;;;;;349642;28;1011;-55
2023/10/20 00:30:11;;;;;;;4.00;1.35;;;16.60;65.80;;;;;;349579;28;1111;-55
2023/10/20 00:30:22;;;;;;;4.32;1.30;;;16.60;65.80;;;;;;349526;28;1709;-55
2023/10/20 00:30:32;;;;;;;5.38;1.45;;;16.60;65.90;;;;;;349674;28;849;-56
2023/10/20 00:30:43;;;;;;;4.57;1.45;;;16.60;66.10;;;;;;349611;28;924;-55
2023/10/20 00:30:54;;;;;;;4.33;1.40;;;16.60;66.40;;;;;;349642;28;1042;-56
2023/10/20 00:31:04;;;;;;;3.78;1.40;;;16.60;66.60;;;;;;349555;28;1020;-55
2023/10/20 00:31:16;;;;;;;4.72;1.50;;;16.60;66.60;;;;;;349608;28;1094;-56
2023/10/20 00:31:29;;;;;;;4.57;1.60;;;16.60;66.40;;;;;;349614;28;1197;-55
2023/10/20 00:31:40;;;;;;;4.63;1.55;;;16.60;66.30;;;;;;349680;28;915;-56
2023/10/20 00:31:50;;;;;;;3.85;1.42;;;16.60;66.50;;;;;;349548;28;1107;-55
2023/10/20 00:32:01;;;;;;;3.55;1.27;;;16.60;66.90;;;;;;349623;28;1039;-55
2023/10/20 00:32:12;;;;;;;3.40;1.27;;;16.60;66.90;;;;;;349612;28;983;-55
2023/10/20 00:32:22;;;;;;;4.20;1.30;;;16.60;66.70;;;;;;349659;28;1062;-55
2023/10/20 00:32:34;;;;;;;3.94;1.30;;;16.60;66.60;;;;;;349613;28;1027;-55
2023/10/20 00:32:45;;;;;;;4.35;1.50;;;16.60;66.40;;;;;;349517;28;1087;-55
2023/10/20 00:32:56;;;;;;;4.22;1.50;;;16.60;66.10;;;;;;349694;28;858;-55
2023/10/20 00:33:07;;;;;;;4.10;1.50;;;16.60;66.00;;;;;;349681;28;944;-56
2023/10/20 00:33:18;;;;;;;3.70;1.45;;;16.60;66.00;;;;;;349645;28;948;-54
2023/10/20 00:33:28;;;;;;;3.70;1.70;;;16.60;66.00;;;;;;349688;28;813;-56
2023/10/20 00:33:39;;;;;;;5.13;1.98;;;16.70;66.00;;;;;;349570;28;989;-56
2023/10/20 00:33:50;;;;;;;5.82;2.15;;;16.70;66.10;;;;;;349588;28;1589;-56
2023/10/20 00:34:01;;;;;;;6.65;2.50;;;16.70;66.40;;;;;;349661;28;967;-56
2023/10/20 00:34:11;;;;;;;5.82;2.30;;;16.60;66.40;;;;;;349669;28;1809;-56
2023/10/20 00:34:22;;;;;;;5.27;2.27;;;16.70;66.40;;;;;;349668;28;972;-55
2023/10/20 00:34:33;;;;;;;3.97;1.80;;;16.60;66.50;;;;;;349320;28;1450;-55
2023/10/20 00:34:44;;;;;;;3.85;1.77;;;16.70;66.80;;;;;;349631;28;983;-55
2023/10/20 00:34:55;;;;;;;4.78;1.73;;;16.70;66.80;;;;;;349625;28;980;-56
2023/10/20 00:35:09;;;;;;;4.85;1.67;;;16.70;66.80;;;;;;349638;28;1479;-56
2023/10/20 00:35:20;;;;;;;4.93;1.60;;;16.70;66.70;;;;;;349555;28;1064;-55
2023/10/20 00:35:31;;;;;;;5.22;1.55;;;16.70;66.50;;;;;;349585;28;1579;-56
2023/10/20 00:35:42;;;;;;;5.47;1.48;;;16.60;66.70;;;;;;349621;28;924;-55
2023/10/20 00:35:53;;;;;;;5.77;3.10;;;16.60;66.80;;;;;;349614;28;1119;-56
2023/10/20 00:36:04;;;;;;;11.25;8.43;;;16.60;66.70;;;;;;349627;28;996;-55
2023/10/20 00:36:15;;;;;;;13.43;10.60;;;16.60;66.70;;;;;;349511;28;1548;-56
2023/10/20 00:36:27;;;;;;;12.05;8.70;;;16.60;66.90;;;;;;349616;28;1106;-56
2023/10/20 00:36:38;;;;;;;7.93;4.70;;;16.60;66.70;;;;;;349614;28;1034;-55
2023/10/20 00:36:49;;;;;;;8.38;3.95;;;16.60;66.70;;;;;;349587;28;1150;-55
2023/10/20 00:36:59;;;;;;;8.53;2.87;;;16.70;66.70;;;;;;349515;28;1008;-56
2023/10/20 00:37:10;;;;;;;8.05;2.33;;;16.70;66.60;;;;;;349656;28;1027;-55
2023/10/20 00:37:21;;;;;;;6.50;1.90;;;16.70;66.60;;;;;;349676;28;841;-56
2023/10/20 00:37:32;;;;;;;5.55;2.17;;;16.60;66.70;;;;;;349610;28;975;-55
2023/10/20 00:37:43;;;;;;;5.45;2.60;;;16.70;66.80;;;;;;352230;28;1342;-56
2023/10/20 00:37:53;;;;;;;4.97;2.67;;;16.60;66.80;;;;;;352219;28;967;-55
2023/10/20 00:38:04;;;;;;;5.15;2.55;;;16.60;66.90;;;;;;352202;28;1786;-57
2023/10/20 00:38:15;;;;;;;5.82;2.13;;;16.60;66.80;;;;;;352296;28;1046;-56
2023/10/20 00:38:26;;;;;;;5.85;1.80;;;16.60;66.90;;;;;;352307;28;907;-56
2023/10/20 00:38:37;;;;;;;5.57;1.50;;;16.70;66.90;;;;;;352305;28;952;-56
2023/10/20 00:38:47;;;;;;;4.50;1.42;;;16.60;66.80;;;;;;352194;28;1010;-56
2023/10/20 00:38:58;;;;;;;5.13;1.50;;;16.70;66.90;;;;;;352245;28;1291;-56
2023/10/20 00:39:09;;;;;;;5.15;1.50;;;16.70;66.90;;;;;;352323;28;1046;-56
2023/10/20 00:39:20;;;;;;;5.47;1.50;;;16.70;67.10;;;;;;352297;28;821;-56
2023/10/20 00:39:30;;;;;;;4.60;1.40;;;16.70;67.10;;;;;;352293;28;1058;-56
2023/10/20 00:39:41;;;;;;;5.17;1.50;;;16.60;67.10;;;;;;350270;28;971;-56
2023/10/20 00:39:53;;;;;;;5.30;1.50;;;16.60;67.10;;;;;;349626;28;952;-56
2023/10/20 00:40:11;;;;;;;5.85;1.70;;;16.70;67.10;;;;;;349560;28;1989;-56
2023/10/20 00:40:22;;;;;;;5.22;1.65;;;16.60;67.20;;;;;;349607;28;1883;-56
2023/10/20 00:40:32;;;;;;;4.93;1.55;;;16.70;67.10;;;;;;349520;28;1164;-55
2023/10/20 00:40:48;;;;;;;5.50;1.60;;;16.60;67.00;;;;;;349596;28;1103;-56
2023/10/20 00:40:59;;;;;;;4.70;1.42;;;16.60;67.10;;;;;;349607;28;952;-56
2023/10/20 00:41:09;;;;;;;3.72;1.33;;;16.60;67.10;;;;;;349487;28;1164;-56
2023/10/20 00:41:20;;;;;;;3.03;1.20;;;16.70;67.30;;;;;;349650;28;972;-57
2023/10/20 00:41:34;;;;;;;4.07;1.40;;;16.70;67.20;;;;;;349577;28;1208;-56
2023/10/20 00:41:45;;;;;;;4.28;1.42;;;16.60;67.40;;;;;;349515;28;1073;-56
2023/10/20 00:41:56;;;;;;;4.03;1.33;;;16.60;67.60;;;;;;349618;28;1002;-56
2023/10/20 00:42:07;;;;;;;4.43;1.27;;;16.60;67.50;;;;;;349701;28;1043;-56
2023/10/20 00:42:18;;;;;;;4.38;1.30;;;16.70;67.50;;;;;;349534;28;1090;-55
2023/10/20 00:42:30;;;;;;;3.95;1.30;;;16.70;67.80;;;;;;349656;28;1154;-56
2023/10/20 00:42:41;;;;;;;4.18;1.38;;;16.60;67.70;;;;;;349696;28;915;-55
2023/10/20 00:42:52;;;;;;;4.00;1.33;;;16.70;67.60;;;;;;349563;28;1806;-56
2023/10/20 00:43:03;;;;;;;3.47;1.20;;;16.70;67.60;;;;;;349585;28;1138;-55
2023/10/20 00:43:13;;;;;;;3.80;1.20;;;16.60;67.40;;;;;;349611;28;1075;-56
2023/10/20 00:43:37;;;;;;;4.75;1.50;;;16.60;67.60;;;;;;349576;28;1022;-55
2023/10/20 00:43:48;;;;;;;4.35;1.60;;;16.70;67.70;;;;;;349600;28;852;-56
2023/10/20 00:43:59;;;;;;;3.53;1.30;;;16.70;67.60;;;;;;349571;28;1007;-55
2023/10/20 00:44:09;;;;;;;3.70;1.25;;;16.70;67.50;;;;;;349607;28;983;-55
2023/10/20 00:44:20;;;;;;;4.00;1.33;;;16.70;67.40;;;;;;349631;28;1106;-56
2023/10/20 00:44:31;;;;;;;4.65;1.30;;;16.70;67.30;;;;;;349546;28;1058;-55
2023/10/20 00:44:42;;;;;;;4.95;1.38;;;16.70;67.20;;;;;;349649;28;1063;-56
2023/10/20 00:44:53;;;;;;;5.55;1.30;;;16.70;67.00;;;;;;349599;28;964;-56
2023/10/20 00:45:05;;;;;;;5.34;1.40;;;16.70;67.00;;;;;;349508;28;1130;-55
2023/10/20 00:45:16;;;;;;;5.07;1.48;;;16.70;67.10;;;;;;349695;28;911;-55
2023/10/20 00:45:27;;;;;;;4.05;1.33;;;16.70;67.10;;;;;;349584;28;960;-55
2023/10/20 00:45:40;;;;;;;3.03;1.20;;;16.70;67.20;;;;;;349628;28;1094;-55
2023/10/20 00:45:50;;;;;;;3.70;1.30;;;16.70;67.20;;;;;;349513;28;1128;-55
2023/10/20 00:46:04;;;;;;;4.10;1.30;;;16.70;67.20;;;;;;349544;28;1399;-55
2023/10/20 00:46:14;;;;;;;5.30;1.58;;;16.60;66.90;;;;;;349672;28;825;-55
2023/10/20 00:46:25;;;;;;;5.25;1.52;;;16.70;66.80;;;;;;349601;28;1158;-56
2023/10/20 00:46:36;;;;;;;5.50;1.45;;;16.70;66.90;;;;;;349498;28;1185;-55
2023/10/20 00:46:47;;;;;;;5.03;1.35;;;16.70;67.00;;;;;;349637;28;1031;-55
2023/10/20 00:46:58;;;;;;;4.13;1.27;;;16.70;66.80;;;;;;349546;28;1178;-56
2023/10/20 00:47:09;;;;;;;3.80;1.20;;;16.70;66.80;;;;;;349661;28;960;-55
2023/10/20 00:47:20;;;;;;;4.25;1.20;;;16.70;66.70;;;;;;349488;28;1130;-56
2023/10/20 00:47:31;;;;;;;5.82;1.27;;;16.70;66.80;;;;;;349587;28;1142;-56
2023/10/20 00:47:44;;;;;;;5.35;1.20;;;16.70;66.80;;;;;;349632;28;947;-55
2023/10/20 00:47:55;;;;;;;5.45;1.27;;;16.70;66.80;;;;;;349609;28;1460;-56
2023/10/20 00:48:13;;;;;;;5.25;1.42;;;16.70;67.00;;;;;;349579;28;1835;-55
2023/10/20 00:48:24;;;;;;;5.20;1.50;;;16.70;67.10;;;;;;349597;28;1043;-55
2023/10/20 00:48:35;;;;;;;4.85;1.50;;;16.70;67.00;;;;;;349645;28;845;-55
2023/10/20 00:48:46;;;;;;;3.97;1.48;;;16.60;66.70;;;;;;349581;28;912;-55
2023/10/20 00:48:57;;;;;;;3.97;1.33;;;16.60;66.60;;;;;;349494;28;1781;-56
2023/10/20 00:49:09;;;;;;;4.38;1.50;;;16.60;66.90;;;;;;349612;28;995;-56
2023/10/20 00:49:21;;;;;;;4.65;1.60;;;16.60;67.10;;;;;;349573;28;1130;-56
2023/10/20 00:49:32;;;;;;;3.90;1.45;;;16.60;67.30;;;;;;349584;28;1054;-57
2023/10/20 00:49:45;;;;;;;4.50;1.23;;;16.60;67.30;;;;;;349577;28;888;-56
2023/10/20 00:49:58;;;;;;;5.75;1.40;;;16.60;67.10;;;;;;349580;28;988;-56
2023/10/20 00:50:11;;;;;;;5.75;1.70;;;16.60;67.00;;;;;;349607;28;1118;-56
2023/10/20 00:50:23;;;;;;;4.22;1.73;;;16.60;67.10;;;;;;349617;28;829;-56
2023/10/20 00:50:34;;;;;;;4.47;1.70;;;16.60;67.20;;;;;;349466;28;1131;-56
2023/10/20 00:50:45;;;;;;;4.10;1.55;;;16.60;67.50;;;;;;349635;28;1047;-56
2023/10/20 00:50:56;;;;;;;5.00;1.50;;;16.60;67.50;;;;;;349530;28;1285;-56
2023/10/20 00:51:08;;;;;;;5.72;1.50;;;16.60;67.60;;;;;;349674;28;825;-56
2023/10/20 00:51:19;;;;;;;6.03;1.50;;;16.60;67.60;;;;;;349536;28;1182;-55
2023/10/20 00:51:30;;;;;;;6.00;1.65;;;16.60;67.70;;;;;;349619;28;1010;-55
2023/10/20 00:51:41;;;;;;;5.63;1.70;;;16.60;67.80;;;;;;349616;28;1010;-56
2023/10/20 00:51:52;;;;;;;5.20;1.63;;;16.60;68.00;;;;;;349603;28;1911;-56
2023/10/20 00:52:03;;;;;;;4.03;1.50;;;16.70;68.10;;;;;;349519;28;1016;-55
2023/10/20 00:52:15;;;;;;;5.20;1.50;;;16.60;68.00;;;;;;349555;28;1458;-56
2023/10/20 00:52:28;;;;;;;4.95;1.52;;;16.60;68.00;;;;;;349490;28;1201;-55
2023/10/20 00:52:48;;;;;;;6.10;1.60;;;16.60;68.00;;;;;;349637;28;907;-56
2023/10/20 00:52:59;;;;;;;5.68;1.80;;;16.70;68.20;;;;;;349597;28;1023;-55
2023/10/20 00:53:11;;;;;;;4.47;1.75;;;16.70;67.80;;;;;;349650;28;818;-55
2023/10/20 00:53:23;;;;;;;4.05;1.58;;;16.70;67.60;;;;;;349557;28;1039;-55
2023/10/20 00:53:35;;;;;;;5.30;1.60;;;16.60;67.40;;;;;;349646;28;936;-57
2023/10/20 00:53:47;;;;;;;6.53;1.50;;;16.60;67.50;;;;;;349579;28;976;-55
2023/10/20 00:53:59;;;;;;;6.22;1.50;;;16.70;67.40;;;;;;349626;28;825;-56
2023/10/20 00:54:13;;;;;;;5.30;1.50;;;16.70;67.40;;;;;;349490;28;1046;-56
2023/10/20 00:54:24;;;;;;;4.22;1.38;;;16.60;67.60;;;;;;349630;28;884;-55
2023/10/20 00:54:35;;;;;;;4.82;1.67;;;16.60;67.60;;;;;;349523;28;933;-55
2023/10/20 00:54:47;;;;;;;4.47;1.83;;;16.70;67.70;;;;;;349627;28;1800;-55
2023/10/20 00:54:59;;;;;;;4.65;1.67;;;16.60;67.80;;;;;;349491;28;1920;-56
2023/10/20 00:55:11;;;;;;;5.20;1.55;;;16.70;67.80;;;;;;349616;28;1034;-56
2023/10/20 00:55:23;;;;;;;5.10;1.63;;;16.70;67.70;;;;;;349515;28;1090;-56
2023/10/20 00:55:34;;;;;;;4.78;1.67;;;16.70;67.70;;;;;;349598;28;935;-56
2023/10/20 00:55:45;;;;;;;5.22;1.70;;;16.70;67.90;;;;;;349617;28;951;-56
2023/10/20 00:55:57;;;;;;;5.70;1.80;;;16.60;67.50;;;;;;349593;28;821;-55
2023/10/20 00:56:08;;;;;;;5.75;1.80;;;16.60;67.40;;;;;;349548;28;1024;-57
2023/10/20 00:56:19;;;;;;;4.68;1.52;;;16.60;67.60;;;;;;349596;28;1117;-55
2023/10/20 00:56:32;;;;;;;5.15;1.60;;;16.60;67.80;;;;;;349537;28;1110;-56
2023/10/20 00:56:43;;;;;;;6.57;1.60;;;16.60;67.90;;;;;;349630;28;1118;-56
2023/10/20 00:56:54;;;;;;;7.05;1.80;;;16.60;67.80;;;;;;349515;28;930;-56
2023/10/20 00:57:05;;;;;;;6.25;1.77;;;16.60;67.80;;;;;;349607;28;983;-55
2023/10/20 00:57:18;;;;;;;5.05;1.65;;;16.60;67.80;;;;;;349529;28;934;-55
2023/10/20 00:57:29;;;;;;;5.07;1.45;;;16.60;67.60;;;;;;349552;28;1123;-55
2023/10/20 00:57:42;;;;;;;5.47;1.50;;;16.60;67.50;;;;;;349500;28;1110;-55
2023/10/20 00:57:54;;;;;;;5.60;1.58;;;16.60;67.50;;;;;;349614;28;999;-56
2023/10/20 00:58:05;;;;;;;5.90;1.60;;;16.60;67.60;;;;;;349528;28;978;-55
2023/10/20 00:58:16;;;;;;;5.85;1.55;;;16.60;67.60;;;;;;349611;28;1082;-55
2023/10/20 00:58:28;;;;;;;5.85;1.52;;;16.60;67.60;;;;;;349550;28;908;-56
2023/10/20 00:58:39;;;;;;;5.38;1.58;;;16.60;67.60;;;;;;349604;28;1035;-55
2023/10/20 00:58:50;;;;;;;5.90;1.55;;;16.60;67.60;;;;;;349574;28;1010;-55
2023/10/20 00:59:02;;;;;;;5.85;1.58;;;16.60;67.50;;;;;;349621;28;1326;-56
2023/10/20 00:59:13;;;;;;;6.25;1.63;;;16.60;67.50;;;;;;349485;28;1115;-55
2023/10/20 00:59:23;;;;;;;5.93;1.63;;;16.60;67.60;;;;;;349674;28;1007;-56
2023/10/20 00:59:34;;;;;;;6.15;1.70;;;16.70;67.70;;;;;;349527;28;910;-55
2023/10/20 00:59:45;;;;;;;4.77;1.50;;;16.60;67.80;;;;;;349647;28;837;-56
2023/10/20 00:59:56;;;;;;;4.85;1.42;;;16.60;67.90;;;;;;349587;28;883;-55
2023/10/20 01:00:09;;;;;;;4.85;1.40;;;16.60;68.00;;;;;;349551;28;1910;-55
2023/10/20 01:00:20;;;;;;;5.57;1.55;;;16.70;68.20;;;;;;349567;28;1033;-56
2023/10/20 01:00:31;;;;;;;5.68;1.62;;;16.60;68.20;;;;;;349605;28;929;-55
2023/10/20 01:00:42;;;;;;;6.28;1.70;;;16.60;67.90;;;;;;349632;28;924;-55
2023/10/20 01:00:53;;;;;;;6.40;1.73;;;16.60;67.80;;;;;;349550;28;1857;-55